sensor_id;sensor_type;location;lat;lon;timestamp;temperature;humidity
2054;DHT22;1032;52.542;13.440;2023-03-12T00:00:44;2.30;99.90
2054;DHT22;1032;52.542;13.440;2023-03-12T00:03:11;2.10;99.90
2054;DHT22;1032;52.542;13.440;2023-03-12T00:05:38;2.00;99.90
2054;DHT22;1032;52.542;13.440;2023-03-12T00:08:05;2.00;99.90
2054;DHT22;1032;52.542;13.440;2023-03-12T00:10:32;2.10;99.90
2054;DHT22;1032;52.542;13.440;2023-03-12T00:12:58;2.20;99.90
2054;DHT22;1032;52.542;13.440;2023-03-12T00:15:27;2.10;99.90
2054;DHT22;1032;52.542;13.440;2023-03-12T00:17:53;2.40;99.90
2054;DHT22;1032;52.542;13.440;2023-03-12T00:20:20;2.20;99.90
2054;DHT22;1032;52.542;13.440;2023-03-12T00:22:47;2.30;99.90
2054;DHT22;1032;52.542;13.440;2023-03-12T00:25:15;2.20;99.90
2054;DHT22;1032;52.542;13.440;2023-03-12T00:27:42;2.40;99.90
2054;DHT22;1032;52.542;13.440;2023-03-12T00:30:10;2.10;99.90
2054;DHT22;1032;52.542;13.440;2023-03-12T00:32:39;2.20;99.90
2054;DHT22;1032;52.542;13.440;2023-03-12T00:35:06;2.20;99.90
2054;DHT22;1032;52.542;13.440;2023-03-12T00:37:33;2.10;99.90
2054;DHT22;1032;52.542;13.440;2023-03-12T00:40:01;1.80;99.90
2054;DHT22;1032;52.542;13.440;2023-03-12T00:42:30;2.30;99.90
2054;DHT22;1032;52.542;13.440;2023-03-12T00:44:57;1.60;99.90
2054;DHT22;1032;52.542;13.440;2023-03-12T00:47:24;2.00;99.90
2054;DHT22;1032;52.542;13.440;2023-03-12T00:49:52;1.60;99.90
2054;DHT22;1032;52.542;13.440;2023-03-12T00:52:18;1.70;99.90
2054;DHT22;1032;52.542;13.440;2023-03-12T00:54:45;2.20;99.90
2054;DHT22;1032;52.542;13.440;2023-03-12T00:57:12;2.30;99.90
2054;DHT22;1032;52.542;13.440;2023-03-12T00:59:38;2.10;99.90
2054;DHT22;1032;52.542;13.440;2023-03-12T01:02:07;2.50;99.90
2054;DHT22;1032;52.542;13.440;2023-03-12T01:04:33;2.30;99.90
2054;DHT22;1032;52.542;13.440;2023-03-12T01:07:02;2.50;99.90
2054;DHT22;1032;52.542;13.440;2023-03-12T01:09:28;2.50;99.90
2054;DHT22;1032;52.542;13.440;2023-03-12T01:11:55;2.30;99.90
2054;DHT22;1032;52.542;13.440;2023-03-12T01:14:21;2.80;99.90
2054;DHT22;1032;52.542;13.440;2023-03-12T01:16:48;2.80;99.90
2054;DHT22;1032;52.542;13.440;2023-03-12T01:19:15;2.80;99.90
2054;DHT22;1032;52.542;13.440;2023-03-12T01:21:41;2.90;99.90
2054;DHT22;1032;52.542;13.440;2023-03-12T01:24:10;2.70;99.90
2054;DHT22;1032;52.542;13.440;2023-03-12T01:26:36;2.60;99.90
2054;DHT22;1032;52.542;13.440;2023-03-12T01:29:03;2.80;99.90
2054;DHT22;1032;52.542;13.440;2023-03-12T01:31:30;2.40;99.90
2054;DHT22;1032;52.542;13.440;2023-03-12T01:33:57;2.70;99.90
2054;DHT22;1032;52.542;13.440;2023-03-12T01:36:25;2.50;99.90
2054;DHT22;1032;52.542;13.440;2023-03-12T01:38:54;2.50;99.90
2054;DHT22;1032;52.542;13.440;2023-03-12T01:41:23;2.70;99.90
2054;DHT22;1032;52.542;13.440;2023-03-12T01:43:50;2.90;99.90
2054;DHT22;1032;52.542;13.440;2023-03-12T01:46:35;2.70;99.90
2054;DHT22;1032;52.542;13.440;2023-03-12T01:49:10;2.60;99.90
2054;DHT22;1032;52.542;13.440;2023-03-12T01:51:40;2.70;99.90
2054;DHT22;1032;52.542;13.440;2023-03-12T01:54:12;2.10;99.90
2054;DHT22;1032;52.542;13.440;2023-03-12T01:56:40;2.70;99.90
2054;DHT22;1032;52.542;13.440;2023-03-12T01:59:12;2.30;99.90
2054;DHT22;1032;52.542;13.440;2023-03-12T02:01:44;2.50;99.90
2054;DHT22;1032;52.542;13.440;2023-03-12T02:04:12;3.20;99.90
2054;DHT22;1032;52.542;13.440;2023-03-12T02:06:44;3.20;99.90
2054;DHT22;1032;52.542;13.440;2023-03-12T02:09:14;3.00;99.90
2054;DHT22;1032;52.542;13.440;2023-03-12T02:11:42;2.90;99.90
2054;DHT22;1032;52.542;13.440;2023-03-12T02:14:09;3.20;99.90
2054;DHT22;1032;52.542;13.440;2023-03-12T02:16:35;3.70;99.90
2054;DHT22;1032;52.542;13.440;2023-03-12T02:19:03;3.30;99.90
2054;DHT22;1032;52.542;13.440;2023-03-12T02:21:32;2.70;99.90
2054;DHT22;1032;52.542;13.440;2023-03-12T02:24:06;2.90;99.90
2054;DHT22;1032;52.542;13.440;2023-03-12T02:26:37;3.30;99.90
2054;DHT22;1032;52.542;13.440;2023-03-12T02:29:04;3.20;99.90
2054;DHT22;1032;52.542;13.440;2023-03-12T02:31:37;2.90;99.90
2054;DHT22;1032;52.542;13.440;2023-03-12T02:34:05;3.10;99.90
2054;DHT22;1032;52.542;13.440;2023-03-12T02:36:35;3.10;99.90
2054;DHT22;1032;52.542;13.440;2023-03-12T02:39:02;2.60;99.90
2054;DHT22;1032;52.542;13.440;2023-03-12T02:41:30;2.90;99.90
2054;DHT22;1032;52.542;13.440;2023-03-12T02:44:01;2.10;99.90
2054;DHT22;1032;52.542;13.440;2023-03-12T02:46:31;2.40;99.90
2054;DHT22;1032;52.542;13.440;2023-03-12T02:48:58;2.40;99.90
2054;DHT22;1032;52.542;13.440;2023-03-12T02:51:26;2.40;99.90
2054;DHT22;1032;52.542;13.440;2023-03-12T02:53:53;2.50;99.90
2054;DHT22;1032;52.542;13.440;2023-03-12T02:56:21;1.80;99.90
2054;DHT22;1032;52.542;13.440;2023-03-12T02:58:48;2.30;99.90
2054;DHT22;1032;52.542;13.440;2023-03-12T03:01:17;2.10;99.90
2054;DHT22;1032;52.542;13.440;2023-03-12T03:03:44;2.10;99.90
2054;DHT22;1032;52.542;13.440;2023-03-12T03:06:10;2.20;99.90
2054;DHT22;1032;52.542;13.440;2023-03-12T03:08:37;2.10;99.90
2054;DHT22;1032;52.542;13.440;2023-03-12T03:11:04;2.10;99.90
2054;DHT22;1032;52.542;13.440;2023-03-12T03:13:32;2.20;99.90
2054;DHT22;1032;52.542;13.440;2023-03-12T03:15:59;2.30;99.90
2054;DHT22;1032;52.542;13.440;2023-03-12T03:18:28;2.10;99.90
2054;DHT22;1032;52.542;13.440;2023-03-12T03:20:56;1.50;99.90
2054;DHT22;1032;52.542;13.440;2023-03-12T03:23:23;2.10;99.90
2054;DHT22;1032;52.542;13.440;2023-03-12T03:25:50;2.10;99.90
2054;DHT22;1032;52.542;13.440;2023-03-12T03:28:17;2.10;99.90
2054;DHT22;1032;52.542;13.440;2023-03-12T03:30:44;2.10;99.90
2054;DHT22;1032;52.542;13.440;2023-03-12T03:33:11;2.00;99.90
2054;DHT22;1032;52.542;13.440;2023-03-12T03:35:40;2.20;99.90
2054;DHT22;1032;52.542;13.440;2023-03-12T03:38:07;2.20;99.90
2054;DHT22;1032;52.542;13.440;2023-03-12T03:40:34;1.80;99.90
2054;DHT22;1032;52.542;13.440;2023-03-12T03:43:00;1.50;99.90
2054;DHT22;1032;52.542;13.440;2023-03-12T03:45:27;1.90;99.90
2054;DHT22;1032;52.542;13.440;2023-03-12T03:47:54;1.90;99.90
2054;DHT22;1032;52.542;13.440;2023-03-12T03:50:20;1.90;99.90
2054;DHT22;1032;52.542;13.440;2023-03-12T03:52:49;1.80;99.90
2054;DHT22;1032;52.542;13.440;2023-03-12T03:55:16;2.00;99.90
2054;DHT22;1032;52.542;13.440;2023-03-12T03:57:43;1.80;99.90
2054;DHT22;1032;52.542;13.440;2023-03-12T04:00:11;1.90;99.90
2054;DHT22;1032;52.542;13.440;2023-03-12T04:02:40;1.80;99.90
2054;DHT22;1032;52.542;13.440;2023-03-12T04:05:10;1.90;99.90
2054;DHT22;1032;52.542;13.440;2023-03-12T04:07:37;1.80;99.90
2054;DHT22;1032;52.542;13.440;2023-03-12T04:10:07;1.10;99.90
2054;DHT22;1032;52.542;13.440;2023-03-12T04:12:34;1.60;99.90
2054;DHT22;1032;52.542;13.440;2023-03-12T04:15:01;1.70;99.90
2054;DHT22;1032;52.542;13.440;2023-03-12T04:17:28;1.70;99.90
2054;DHT22;1032;52.542;13.440;2023-03-12T04:19:56;1.60;99.90
2054;DHT22;1032;52.542;13.440;2023-03-12T04:22:23;1.70;99.90
2054;DHT22;1032;52.542;13.440;2023-03-12T04:24:50;1.10;99.90
2054;DHT22;1032;52.542;13.440;2023-03-12T04:27:18;1.60;99.90
2054;DHT22;1032;52.542;13.440;2023-03-12T04:29:45;1.70;99.90
2054;DHT22;1032;52.542;13.440;2023-03-12T04:32:12;1.60;99.90
2054;DHT22;1032;52.542;13.440;2023-03-12T04:34:38;1.70;99.90
2054;DHT22;1032;52.542;13.440;2023-03-12T04:37:05;1.40;99.90
2054;DHT22;1032;52.542;13.440;2023-03-12T04:39:32;1.60;99.90
2054;DHT22;1032;52.542;13.440;2023-03-12T04:41:59;1.90;99.90
2054;DHT22;1032;52.542;13.440;2023-03-12T04:44:27;1.50;99.90
2054;DHT22;1032;52.542;13.440;2023-03-12T04:46:54;1.60;99.90
2054;DHT22;1032;52.542;13.440;2023-03-12T04:49:24;1.10;99.90
2054;DHT22;1032;52.542;13.440;2023-03-12T04:51:51;1.30;99.90
2054;DHT22;1032;52.542;13.440;2023-03-12T04:54:19;1.50;99.90
2054;DHT22;1032;52.542;13.440;2023-03-12T04:56:47;1.40;99.90
2054;DHT22;1032;52.542;13.440;2023-03-12T04:59:14;1.60;99.90
2054;DHT22;1032;52.542;13.440;2023-03-12T05:01:43;1.50;99.90
2054;DHT22;1032;52.542;13.440;2023-03-12T05:04:16;1.50;99.90
2054;DHT22;1032;52.542;13.440;2023-03-12T05:06:43;1.60;99.90
2054;DHT22;1032;52.542;13.440;2023-03-12T05:09:10;1.60;99.90
2054;DHT22;1032;52.542;13.440;2023-03-12T05:11:36;1.40;99.90
2054;DHT22;1032;52.542;13.440;2023-03-12T05:14:03;1.40;99.90
2054;DHT22;1032;52.542;13.440;2023-03-12T05:16:30;1.60;99.90
2054;DHT22;1032;52.542;13.440;2023-03-12T05:18:58;1.60;99.90
2054;DHT22;1032;52.542;13.440;2023-03-12T05:21:26;1.00;99.90
2054;DHT22;1032;52.542;13.440;2023-03-12T05:23:55;1.50;99.90
2054;DHT22;1032;52.542;13.440;2023-03-12T05:26:26;0.70;99.90
2054;DHT22;1032;52.542;13.440;2023-03-12T05:29:01;1.60;99.90
2054;DHT22;1032;52.542;13.440;2023-03-12T05:31:29;1.40;99.90
2054;DHT22;1032;52.542;13.440;2023-03-12T05:34:01;1.50;99.90
2054;DHT22;1032;52.542;13.440;2023-03-12T05:36:28;1.40;99.90
2054;DHT22;1032;52.542;13.440;2023-03-12T05:38:55;1.50;99.90
2054;DHT22;1032;52.542;13.440;2023-03-12T05:41:25;1.50;99.90
2054;DHT22;1032;52.542;13.440;2023-03-12T05:43:57;1.40;99.90
2054;DHT22;1032;52.542;13.440;2023-03-12T05:46:25;1.60;99.90
2054;DHT22;1032;52.542;13.440;2023-03-12T05:48:52;1.70;99.90
2054;DHT22;1032;52.542;13.440;2023-03-12T05:51:20;1.50;99.90
2054;DHT22;1032;52.542;13.440;2023-03-12T05:53:47;1.60;99.90
2054;DHT22;1032;52.542;13.440;2023-03-12T05:56:15;1.00;99.90
2054;DHT22;1032;52.542;13.440;2023-03-12T05:58:43;1.60;99.90
2054;DHT22;1032;52.542;13.440;2023-03-12T06:01:11;1.40;99.90
2054;DHT22;1032;52.542;13.440;2023-03-12T06:03:38;1.60;99.90
2054;DHT22;1032;52.542;13.440;2023-03-12T06:06:05;1.50;99.90
2054;DHT22;1032;52.542;13.440;2023-03-12T06:08:33;1.10;99.90
2054;DHT22;1032;52.542;13.440;2023-03-12T06:10:59;1.50;99.90
2054;DHT22;1032;52.542;13.440;2023-03-12T06:13:27;1.70;99.90
2054;DHT22;1032;52.542;13.440;2023-03-12T06:16:00;1.40;99.90
2054;DHT22;1032;52.542;13.440;2023-03-12T06:18:29;1.80;99.90
2054;DHT22;1032;52.542;13.440;2023-03-12T06:21:07;1.50;99.90
2054;DHT22;1032;52.542;13.440;2023-03-12T06:23:35;1.90;99.90
2054;DHT22;1032;52.542;13.440;2023-03-12T06:26:02;1.80;99.90
2054;DHT22;1032;52.542;13.440;2023-03-12T06:28:28;2.00;99.90
2054;DHT22;1032;52.542;13.440;2023-03-12T06:30:55;2.20;99.90
2054;DHT22;1032;52.542;13.440;2023-03-12T06:33:22;2.10;99.90
2054;DHT22;1032;52.542;13.440;2023-03-12T06:35:52;2.30;99.90
2054;DHT22;1032;52.542;13.440;2023-03-12T06:38:19;2.20;99.90
2054;DHT22;1032;52.542;13.440;2023-03-12T06:40:54;2.40;99.90
2054;DHT22;1032;52.542;13.440;2023-03-12T06:43:21;2.40;99.90
2054;DHT22;1032;52.542;13.440;2023-03-12T06:45:48;1.90;99.90
2054;DHT22;1032;52.542;13.440;2023-03-12T06:48:14;2.30;99.90
2054;DHT22;1032;52.542;13.440;2023-03-12T06:50:41;2.50;99.90
2054;DHT22;1032;52.542;13.440;2023-03-12T06:53:08;2.80;99.90
2054;DHT22;1032;52.542;13.440;2023-03-12T06:55:35;2.50;99.90
2054;DHT22;1032;52.542;13.440;2023-03-12T06:58:03;2.80;99.90
2054;DHT22;1032;52.542;13.440;2023-03-12T07:00:30;2.50;99.90
2054;DHT22;1032;52.542;13.440;2023-03-12T07:02:57;2.70;99.90
2054;DHT22;1032;52.542;13.440;2023-03-12T07:05:24;2.70;99.90
2054;DHT22;1032;52.542;13.440;2023-03-12T07:07:50;2.20;99.90
2054;DHT22;1032;52.542;13.440;2023-03-12T07:10:17;2.90;99.90
2054;DHT22;1032;52.542;13.440;2023-03-12T07:12:44;2.80;99.90
2054;DHT22;1032;52.542;13.440;2023-03-12T07:15:13;2.90;99.90
2054;DHT22;1032;52.542;13.440;2023-03-12T07:17:40;3.10;99.90
2054;DHT22;1032;52.542;13.440;2023-03-12T07:20:08;3.10;99.90
2054;DHT22;1032;52.542;13.440;2023-03-12T07:22:34;3.40;99.90
2054;DHT22;1032;52.542;13.440;2023-03-12T07:25:01;2.90;99.90
2054;DHT22;1032;52.542;13.440;2023-03-12T07:27:29;3.30;99.90
2054;DHT22;1032;52.542;13.440;2023-03-12T07:29:55;3.50;99.90
2054;DHT22;1032;52.542;13.440;2023-03-12T07:32:23;3.40;99.90
2054;DHT22;1032;52.542;13.440;2023-03-12T07:34:50;3.50;99.90
2054;DHT22;1032;52.542;13.440;2023-03-12T07:37:17;2.80;99.90
2054;DHT22;1032;52.542;13.440;2023-03-12T07:39:43;3.60;99.90
2054;DHT22;1032;52.542;13.440;2023-03-12T07:42:12;3.50;99.90
2054;DHT22;1032;52.542;13.440;2023-03-12T07:44:40;3.40;99.90
2054;DHT22;1032;52.542;13.440;2023-03-12T07:47:06;3.70;99.90
2054;DHT22;1032;52.542;13.440;2023-03-12T07:49:34;2.90;99.90
2054;DHT22;1032;52.542;13.440;2023-03-12T07:52:01;3.40;99.90
2054;DHT22;1032;52.542;13.440;2023-03-12T07:54:29;3.60;99.90
2054;DHT22;1032;52.542;13.440;2023-03-12T07:56:56;3.50;99.90
2054;DHT22;1032;52.542;13.440;2023-03-12T07:59:22;3.50;99.90
2054;DHT22;1032;52.542;13.440;2023-03-12T08:01:51;3.50;99.90
2054;DHT22;1032;52.542;13.440;2023-03-12T08:04:17;3.70;99.90
2054;DHT22;1032;52.542;13.440;2023-03-12T08:06:46;3.60;99.90
2054;DHT22;1032;52.542;13.440;2023-03-12T08:09:12;3.60;99.90
2054;DHT22;1032;52.542;13.440;2023-03-12T08:11:39;3.80;99.90
2054;DHT22;1032;52.542;13.440;2023-03-12T08:14:05;3.70;99.90
2054;DHT22;1032;52.542;13.440;2023-03-12T08:16:32;3.30;99.90
2054;DHT22;1032;52.542;13.440;2023-03-12T08:18:59;3.40;99.90
2054;DHT22;1032;52.542;13.440;2023-03-12T08:21:26;4.00;99.90
2054;DHT22;1032;52.542;13.440;2023-03-12T08:23:53;3.90;99.90
2054;DHT22;1032;52.542;13.440;2023-03-12T08:26:20;4.00;99.90
2054;DHT22;1032;52.542;13.440;2023-03-12T08:28:47;3.90;99.90
2054;DHT22;1032;52.542;13.440;2023-03-12T08:31:13;4.10;99.90
2054;DHT22;1032;52.542;13.440;2023-03-12T08:33:40;3.90;99.90
2054;DHT22;1032;52.542;13.440;2023-03-12T08:36:08;4.00;99.90
2054;DHT22;1032;52.542;13.440;2023-03-12T08:38:34;4.00;99.90
2054;DHT22;1032;52.542;13.440;2023-03-12T08:41:02;4.20;99.90
2054;DHT22;1032;52.542;13.440;2023-03-12T08:43:29;4.10;99.90
2054;DHT22;1032;52.542;13.440;2023-03-12T08:45:57;4.20;99.90
2054;DHT22;1032;52.542;13.440;2023-03-12T08:48:25;4.60;99.90
2054;DHT22;1032;52.542;13.440;2023-03-12T08:50:53;4.60;99.90
2054;DHT22;1032;52.542;13.440;2023-03-12T08:53:20;4.60;99.90
2054;DHT22;1032;52.542;13.440;2023-03-12T08:55:47;4.80;99.90
2054;DHT22;1032;52.542;13.440;2023-03-12T08:58:15;4.80;99.90
2054;DHT22;1032;52.542;13.440;2023-03-12T09:00:41;4.70;99.90
2054;DHT22;1032;52.542;13.440;2023-03-12T09:03:08;4.90;99.90
2054;DHT22;1032;52.542;13.440;2023-03-12T09:05:38;4.70;99.90
2054;DHT22;1032;52.542;13.440;2023-03-12T09:08:05;4.80;99.90
2054;DHT22;1032;52.542;13.440;2023-03-12T09:10:32;4.80;99.90
2054;DHT22;1032;52.542;13.440;2023-03-12T09:12:58;4.70;99.90
2054;DHT22;1032;52.542;13.440;2023-03-12T09:15:27;5.00;99.90
2054;DHT22;1032;52.542;13.440;2023-03-12T09:17:54;4.90;99.90
2054;DHT22;1032;52.542;13.440;2023-03-12T09:20:21;4.90;99.90
2054;DHT22;1032;52.542;13.440;2023-03-12T09:22:48;5.10;99.90
2054;DHT22;1032;52.542;13.440;2023-03-12T09:25:17;5.20;99.90
2054;DHT22;1032;52.542;13.440;2023-03-12T09:27:46;5.40;99.90
2054;DHT22;1032;52.542;13.440;2023-03-12T09:30:15;5.30;99.90
2054;DHT22;1032;52.542;13.440;2023-03-12T09:32:44;5.70;99.90
2054;DHT22;1032;52.542;13.440;2023-03-12T09:35:12;5.60;99.90
2054;DHT22;1032;52.542;13.440;2023-03-12T09:37:39;6.00;99.90
2054;DHT22;1032;52.542;13.440;2023-03-12T09:40:09;6.00;99.90
2054;DHT22;1032;52.542;13.440;2023-03-12T09:42:40;5.80;99.90
2054;DHT22;1032;52.542;13.440;2023-03-12T09:45:13;6.20;99.90
2054;DHT22;1032;52.542;13.440;2023-03-12T09:47:47;6.10;99.90
2054;DHT22;1032;52.542;13.440;2023-03-12T09:50:20;6.40;99.90
2054;DHT22;1032;52.542;13.440;2023-03-12T09:52:52;6.30;99.90
2054;DHT22;1032;52.542;13.440;2023-03-12T09:55:21;6.30;99.90
2054;DHT22;1032;52.542;13.440;2023-03-12T09:57:50;6.60;99.90
2054;DHT22;1032;52.542;13.440;2023-03-12T10:00:19;6.60;99.90
2054;DHT22;1032;52.542;13.440;2023-03-12T10:03:13;7.10;99.90
2054;DHT22;1032;52.542;13.440;2023-03-12T10:05:45;6.80;99.70
2054;DHT22;1032;52.542;13.440;2023-03-12T10:08:17;6.90;99.80
2054;DHT22;1032;52.542;13.440;2023-03-12T10:10:51;7.10;99.90
2054;DHT22;1032;52.542;13.440;2023-03-12T10:13:45;7.10;99.00
2054;DHT22;1032;52.542;13.440;2023-03-12T10:16:22;7.40;99.70
2054;DHT22;1032;52.542;13.440;2023-03-12T10:19:02;7.30;99.20
2054;DHT22;1032;52.542;13.440;2023-03-12T10:21:34;7.40;99.40
2054;DHT22;1032;52.542;13.440;2023-03-12T10:24:17;7.60;99.20
2054;DHT22;1032;52.542;13.440;2023-03-12T10:26:49;7.30;98.80
2054;DHT22;1032;52.542;13.440;2023-03-12T10:29:17;7.70;99.40
2054;DHT22;1032;52.542;13.440;2023-03-12T10:31:52;7.70;98.50
2054;DHT22;1032;52.542;13.440;2023-03-12T10:34:33;7.70;97.80
2054;DHT22;1032;52.542;13.440;2023-03-12T10:37:10;7.50;98.10
2054;DHT22;1032;52.542;13.440;2023-03-12T10:39:39;7.60;98.00
2054;DHT22;1032;52.542;13.440;2023-03-12T10:42:13;7.50;97.20
2054;DHT22;1032;52.542;13.440;2023-03-12T10:44:41;7.50;97.10
2054;DHT22;1032;52.542;13.440;2023-03-12T10:47:19;7.50;97.10
2054;DHT22;1032;52.542;13.440;2023-03-12T10:49:50;7.40;97.20
2054;DHT22;1032;52.542;13.440;2023-03-12T10:52:19;7.60;97.20
2054;DHT22;1032;52.542;13.440;2023-03-12T10:54:48;7.50;97.60
2054;DHT22;1032;52.542;13.440;2023-03-12T10:57:16;7.50;97.50
2054;DHT22;1032;52.542;13.440;2023-03-12T10:59:44;7.60;97.10
2054;DHT22;1032;52.542;13.440;2023-03-12T11:02:29;7.80;97.40
2054;DHT22;1032;52.542;13.440;2023-03-12T11:04:58;7.70;97.00
2054;DHT22;1032;52.542;13.440;2023-03-12T11:07:27;7.80;96.50
2054;DHT22;1032;52.542;13.440;2023-03-12T11:10:16;7.70;96.40
2054;DHT22;1032;52.542;13.440;2023-03-12T11:12:59;8.20;96.40
2054;DHT22;1032;52.542;13.440;2023-03-12T11:15:37;8.00;95.00
2054;DHT22;1032;52.542;13.440;2023-03-12T11:18:25;7.90;95.60
2054;DHT22;1032;52.542;13.440;2023-03-12T11:20:55;8.30;95.00
2054;DHT22;1032;52.542;13.440;2023-03-12T11:23:25;8.30;95.10
2054;DHT22;1032;52.542;13.440;2023-03-12T11:25:58;8.30;94.90
2054;DHT22;1032;52.542;13.440;2023-03-12T11:28:35;7.70;94.40
2054;DHT22;1032;52.542;13.440;2023-03-12T11:31:02;8.50;95.10
2054;DHT22;1032;52.542;13.440;2023-03-12T11:33:30;8.60;94.80
2054;DHT22;1032;52.542;13.440;2023-03-12T11:36:07;8.20;94.00
2054;DHT22;1032;52.542;13.440;2023-03-12T11:38:40;8.50;94.00
2054;DHT22;1032;52.542;13.440;2023-03-12T11:41:20;8.20;93.70
2054;DHT22;1032;52.542;13.440;2023-03-12T11:43:59;8.40;93.90
2054;DHT22;1032;52.542;13.440;2023-03-12T11:46:34;9.20;94.00
2054;DHT22;1032;52.542;13.440;2023-03-12T11:49:20;8.50;93.10
2054;DHT22;1032;52.542;13.440;2023-03-12T11:51:55;8.90;92.10
2054;DHT22;1032;52.542;13.440;2023-03-12T11:54:47;8.50;91.90
2054;DHT22;1032;52.542;13.440;2023-03-12T11:57:25;8.70;91.30
2054;DHT22;1032;52.542;13.440;2023-03-12T12:00:02;8.80;91.80
2054;DHT22;1032;52.542;13.440;2023-03-12T12:02:55;8.50;91.40
2054;DHT22;1032;52.542;13.440;2023-03-12T12:05:34;8.80;89.90
2054;DHT22;1032;52.542;13.440;2023-03-12T12:08:29;8.80;89.60
2054;DHT22;1032;52.542;13.440;2023-03-12T12:11:04;9.30;89.00
2054;DHT22;1032;52.542;13.440;2023-03-12T12:13:40;8.80;88.80
2054;DHT22;1032;52.542;13.440;2023-03-12T12:16:30;9.50;89.10
2054;DHT22;1032;52.542;13.440;2023-03-12T12:19:09;9.20;87.70
2054;DHT22;1032;52.542;13.440;2023-03-12T12:21:47;9.10;85.90
2054;DHT22;1032;52.542;13.440;2023-03-12T12:24:30;9.20;85.10
2054;DHT22;1032;52.542;13.440;2023-03-12T12:27:07;8.60;81.60
2054;DHT22;1032;52.542;13.440;2023-03-12T12:29:54;9.60;81.20
2054;DHT22;1032;52.542;13.440;2023-03-12T12:32:34;9.20;79.90
2054;DHT22;1032;52.542;13.440;2023-03-12T12:35:12;9.60;80.30
2054;DHT22;1032;52.542;13.440;2023-03-12T12:37:49;9.00;75.40
2054;DHT22;1032;52.542;13.440;2023-03-12T12:40:22;9.20;75.30
2054;DHT22;1032;52.542;13.440;2023-03-12T12:42:57;9.10;73.90
2054;DHT22;1032;52.542;13.440;2023-03-12T12:45:27;9.30;73.50
2054;DHT22;1032;52.542;13.440;2023-03-12T12:47:56;8.80;72.50
2054;DHT22;1032;52.542;13.440;2023-03-12T12:50:28;9.20;71.60
2054;DHT22;1032;52.542;13.440;2023-03-12T12:53:01;9.10;72.20
2054;DHT22;1032;52.542;13.440;2023-03-12T12:55:34;9.30;70.90
2054;DHT22;1032;52.542;13.440;2023-03-12T12:58:05;9.20;70.00
2054;DHT22;1032;52.542;13.440;2023-03-12T13:00:45;9.30;69.50
2054;DHT22;1032;52.542;13.440;2023-03-12T13:03:15;9.20;69.30
2054;DHT22;1032;52.542;13.440;2023-03-12T13:05:54;9.20;66.60
2054;DHT22;1032;52.542;13.440;2023-03-12T13:09:00;9.00;66.40
2054;DHT22;1032;52.542;13.440;2023-03-12T13:11:30;9.00;65.00
2054;DHT22;1032;52.542;13.440;2023-03-12T13:14:22;9.10;66.70
2054;DHT22;1032;52.542;13.440;2023-03-12T13:17:18;9.10;66.70
2054;DHT22;1032;52.542;13.440;2023-03-12T13:19:46;8.40;67.70
2054;DHT22;1032;52.542;13.440;2023-03-12T13:22:20;9.00;67.90
2054;DHT22;1032;52.542;13.440;2023-03-12T13:24:55;9.00;67.20
2054;DHT22;1032;52.542;13.440;2023-03-12T13:27:28;8.90;67.30
2054;DHT22;1032;52.542;13.440;2023-03-12T13:29:55;8.90;67.80
2054;DHT22;1032;52.542;13.440;2023-03-12T13:33:05;8.90;68.00
2054;DHT22;1032;52.542;13.440;2023-03-12T13:35:37;9.00;66.80
2054;DHT22;1032;52.542;13.440;2023-03-12T13:38:08;8.90;68.00
2054;DHT22;1032;52.542;13.440;2023-03-12T13:41:00;9.20;67.80
2054;DHT22;1032;52.542;13.440;2023-03-12T13:43:49;9.00;67.00
2054;DHT22;1032;52.542;13.440;2023-03-12T13:46:38;9.00;67.80
2054;DHT22;1032;52.542;13.440;2023-03-12T13:49:10;9.30;69.40
2054;DHT22;1032;52.542;13.440;2023-03-12T13:51:58;8.50;69.30
2054;DHT22;1032;52.542;13.440;2023-03-12T13:54:29;9.00;69.40
2054;DHT22;1032;52.542;13.440;2023-03-12T13:57:00;9.00;68.90
2054;DHT22;1032;52.542;13.440;2023-03-12T13:59:30;9.10;69.70
2054;DHT22;1032;52.542;13.440;2023-03-12T14:02:04;8.30;69.60
2054;DHT22;1032;52.542;13.440;2023-03-12T14:04:35;8.60;69.30
2054;DHT22;1032;52.542;13.440;2023-03-12T14:07:26;8.80;69.50
2054;DHT22;1032;52.542;13.440;2023-03-12T14:10:02;8.60;68.60
2054;DHT22;1032;52.542;13.440;2023-03-12T14:12:37;8.70;69.20
2054;DHT22;1032;52.542;13.440;2023-03-12T14:15:17;9.10;66.60
2054;DHT22;1032;52.542;13.440;2023-03-12T14:17:54;8.40;63.20
2054;DHT22;1032;52.542;13.440;2023-03-12T14:20:27;8.50;64.40
2054;DHT22;1032;52.542;13.440;2023-03-12T14:22:59;8.10;65.10
2054;DHT22;1032;52.542;13.440;2023-03-12T14:25:34;8.50;65.10
2054;DHT22;1032;52.542;13.440;2023-03-12T14:28:03;8.40;63.80
2054;DHT22;1032;52.542;13.440;2023-03-12T14:30:40;8.60;63.00
2054;DHT22;1032;52.542;13.440;2023-03-12T14:33:09;8.40;63.70
2054;DHT22;1032;52.542;13.440;2023-03-12T14:35:42;8.10;64.10
2054;DHT22;1032;52.542;13.440;2023-03-12T14:38:15;8.20;64.70
2054;DHT22;1032;52.542;13.440;2023-03-12T14:40:45;8.10;65.00
2054;DHT22;1032;52.542;13.440;2023-03-12T14:43:22;8.30;66.60
2054;DHT22;1032;52.542;13.440;2023-03-12T14:45:53;8.10;67.20
2054;DHT22;1032;52.542;13.440;2023-03-12T14:48:22;8.40;68.30
2054;DHT22;1032;52.542;13.440;2023-03-12T14:50:49;8.40;68.60
2054;DHT22;1032;52.542;13.440;2023-03-12T14:53:19;8.00;70.00
2054;DHT22;1032;52.542;13.440;2023-03-12T14:55:58;8.00;70.60
2054;DHT22;1032;52.542;13.440;2023-03-12T14:58:25;7.90;71.40
2054;DHT22;1032;52.542;13.440;2023-03-12T15:00:58;7.80;71.70
2054;DHT22;1032;52.542;13.440;2023-03-12T15:03:26;7.70;72.20
2054;DHT22;1032;52.542;13.440;2023-03-12T15:05:54;7.90;72.80
2054;DHT22;1032;52.542;13.440;2023-03-12T15:08:21;8.00;73.40
2054;DHT22;1032;52.542;13.440;2023-03-12T15:10:51;7.90;73.10
2054;DHT22;1032;52.542;13.440;2023-03-12T15:13:19;8.10;73.80
2054;DHT22;1032;52.542;13.440;2023-03-12T15:15:47;7.70;73.30
2054;DHT22;1032;52.542;13.440;2023-03-12T15:18:18;7.70;73.60
2054;DHT22;1032;52.542;13.440;2023-03-12T15:20:46;7.70;73.60
2054;DHT22;1032;52.542;13.440;2023-03-12T15:23:14;7.80;74.10
2054;DHT22;1032;52.542;13.440;2023-03-12T15:25:42;8.50;74.90
2054;DHT22;1032;52.542;13.440;2023-03-12T15:28:25;7.60;74.10
2054;DHT22;1032;52.542;13.440;2023-03-12T15:31:08;7.40;73.60
2054;DHT22;1032;52.542;13.440;2023-03-12T15:33:38;7.40;74.00
2054;DHT22;1032;52.542;13.440;2023-03-12T15:36:23;7.80;75.30
2054;DHT22;1032;52.542;13.440;2023-03-12T15:38:53;7.50;75.90
2054;DHT22;1032;52.542;13.440;2023-03-12T15:41:22;7.60;76.70
2054;DHT22;1032;52.542;13.440;2023-03-12T15:43:53;7.50;77.60
2054;DHT22;1032;52.542;13.440;2023-03-12T15:46:21;7.50;78.90
2054;DHT22;1032;52.542;13.440;2023-03-12T15:48:51;7.30;79.50
2054;DHT22;1032;52.542;13.440;2023-03-12T15:51:29;7.20;79.90
2054;DHT22;1032;52.542;13.440;2023-03-12T15:54:04;7.20;80.80
2054;DHT22;1032;52.542;13.440;2023-03-12T15:56:33;7.30;81.90
2054;DHT22;1032;52.542;13.440;2023-03-12T15:59:04;7.10;81.80
2054;DHT22;1032;52.542;13.440;2023-03-12T16:01:43;7.40;82.90
2054;DHT22;1032;52.542;13.440;2023-03-12T16:04:11;7.40;83.20
2054;DHT22;1032;52.542;13.440;2023-03-12T16:06:38;7.30;84.00
2054;DHT22;1032;52.542;13.440;2023-03-12T16:09:10;7.30;86.00
2054;DHT22;1032;52.542;13.440;2023-03-12T16:11:39;7.20;87.80
2054;DHT22;1032;52.542;13.440;2023-03-12T16:14:09;7.40;88.90
2054;DHT22;1032;52.542;13.440;2023-03-12T16:16:38;7.20;89.90
2054;DHT22;1032;52.542;13.440;2023-03-12T16:19:11;6.50;88.80
2054;DHT22;1032;52.542;13.440;2023-03-12T16:21:38;6.90;90.50
2054;DHT22;1032;52.542;13.440;2023-03-12T16:24:06;6.30;90.80